sensor_id;sensor_type;location;lat;lon;timestamp;pressure;altitude;pressure_sealevel;temperature;humidity
7052;BME280;3567;52.444;13.556;2024-02-04T00:01:24;101319.56;;;7.56;100.00
7052;BME280;3567;52.444;13.556;2024-02-04T00:03:50;101321.81;;;7.52;100.00
7052;BME280;3567;52.444;13.556;2024-02-04T00:06:15;101329.75;;;7.46;100.00
7052;BME280;3567;52.444;13.556;2024-02-04T00:08:41;101314.34;;;7.41;100.00
7052;BME280;3567;52.444;13.556;2024-02-04T00:11:06;101317.38;;;7.38;100.00
7052;BME280;3567;52.444;13.556;2024-02-04T00:13:33;101314.25;;;7.34;100.00
7052;BME280;3567;52.444;13.556;2024-02-04T00:15:59;101319.59;;;7.34;100.00
7052;BME280;3567;52.444;13.556;2024-02-04T00:18:24;101328.63;;;7.33;100.00
7052;BME280;3567;52.444;13.556;2024-02-04T00:20:50;101328.25;;;7.37;100.00
7052;BME280;3567;52.444;13.556;2024-02-04T00:23:16;101321.69;;;7.39;100.00
7052;BME280;3567;52.444;13.556;2024-02-04T00:25:41;101317.81;;;7.42;100.00
7052;BME280;3567;52.444;13.556;2024-02-04T00:28:07;101326.66;;;7.42;100.00
7052;BME280;3567;52.444;13.556;2024-02-04T00:30:36;101321.75;;;7.46;100.00
7052;BME280;3567;52.444;13.556;2024-02-04T00:33:02;101320.91;;;7.45;100.00
7052;BME280;3567;52.444;13.556;2024-02-04T00:35:29;101307.41;;;7.47;100.00
7052;BME280;3567;52.444;13.556;2024-02-04T00:37:54;101324.03;;;7.49;100.00
7052;BME280;3567;52.444;13.556;2024-02-04T00:40:20;101333.50;;;7.51;100.00
7052;BME280;3567;52.444;13.556;2024-02-04T00:42:45;101334.88;;;7.47;100.00
7052;BME280;3567;52.444;13.556;2024-02-04T00:45:10;101332.44;;;7.46;100.00
7052;BME280;3567;52.444;13.556;2024-02-04T00:47:36;101325.03;;;7.48;100.00
7052;BME280;3567;52.444;13.556;2024-02-04T00:50:01;101317.81;;;7.42;100.00
7052;BME280;3567;52.444;13.556;2024-02-04T00:52:27;101308.94;;;7.34;100.00
7052;BME280;3567;52.444;13.556;2024-02-04T00:54:52;101299.88;;;7.29;100.00
7052;BME280;3567;52.444;13.556;2024-02-04T00:57:17;101298.19;;;7.21;100.00
7052;BME280;3567;52.444;13.556;2024-02-04T00:59:43;101304.28;;;7.15;100.00
7052;BME280;3567;52.444;13.556;2024-02-04T01:02:08;101326.53;;;7.07;100.00
7052;BME280;3567;52.444;13.556;2024-02-04T01:04:33;101321.22;;;7.07;100.00
7052;BME280;3567;52.444;13.556;2024-02-04T01:06:59;101302.50;;;7.01;100.00
7052;BME280;3567;52.444;13.556;2024-02-04T01:09:24;101307.84;;;7.01;100.00
7052;BME280;3567;52.444;13.556;2024-02-04T01:11:49;101301.06;;;6.98;100.00
7052;BME280;3567;52.444;13.556;2024-02-04T01:14:15;101299.16;;;6.92;100.00
7052;BME280;3567;52.444;13.556;2024-02-04T01:16:40;101313.06;;;6.88;100.00
7052;BME280;3567;52.444;13.556;2024-02-04T01:19:05;101305.44;;;6.85;100.00
7052;BME280;3567;52.444;13.556;2024-02-04T01:21:31;101299.28;;;6.84;100.00
7052;BME280;3567;52.444;13.556;2024-02-04T01:23:56;101291.31;;;6.84;100.00
7052;BME280;3567;52.444;13.556;2024-02-04T01:26:21;101298.22;;;6.78;100.00
7052;BME280;3567;52.444;13.556;2024-02-04T01:28:49;101307.97;;;6.71;100.00
7052;BME280;3567;52.444;13.556;2024-02-04T01:31:14;101310.53;;;6.65;100.00
7052;BME280;3567;52.444;13.556;2024-02-04T01:33:40;101307.06;;;6.64;100.00
7052;BME280;3567;52.444;13.556;2024-02-04T01:36:05;101299.00;;;6.57;100.00
7052;BME280;3567;52.444;13.556;2024-02-04T01:38:31;101298.38;;;6.55;100.00
7052;BME280;3567;52.444;13.556;2024-02-04T01:40:56;101312.25;;;6.51;100.00
7052;BME280;3567;52.444;13.556;2024-02-04T01:43:23;101297.31;;;6.50;100.00
7052;BME280;3567;52.444;13.556;2024-02-04T01:45:50;101298.75;;;6.52;100.00
7052;BME280;3567;52.444;13.556;2024-02-04T01:48:15;101302.25;;;6.53;100.00
7052;BME280;3567;52.444;13.556;2024-02-04T01:50:41;101308.78;;;6.50;100.00
7052;BME280;3567;52.444;13.556;2024-02-04T01:53:08;101297.94;;;6.52;100.00
7052;BME280;3567;52.444;13.556;2024-02-04T01:55:33;101298.94;;;6.51;100.00
7052;BME280;3567;52.444;13.556;2024-02-04T01:57:58;101307.28;;;6.48;100.00
7052;BME280;3567;52.444;13.556;2024-02-04T02:00:24;101321.97;;;6.44;100.00
7052;BME280;3567;52.444;13.556;2024-02-04T02:02:49;101312.09;;;6.38;100.00
7052;BME280;3567;52.444;13.556;2024-02-04T02:05:16;101300.56;;;6.30;100.00
7052;BME280;3567;52.444;13.556;2024-02-04T02:07:41;101298.81;;;6.23;100.00
7052;BME280;3567;52.444;13.556;2024-02-04T02:10:10;101308.34;;;6.17;100.00
7052;BME280;3567;52.444;13.556;2024-02-04T02:12:42;101319.56;;;6.13;100.00
7052;BME280;3567;52.444;13.556;2024-02-04T02:15:21;101308.00;;;6.06;100.00
7052;BME280;3567;52.444;13.556;2024-02-04T02:18:20;101313.50;;;6.04;100.00
7052;BME280;3567;52.444;13.556;2024-02-04T02:23:21;101296.19;;;6.08;100.00
7052;BME280;3567;52.444;13.556;2024-02-04T02:25:49;101273.91;;;6.09;100.00
7052;BME280;3567;52.444;13.556;2024-02-04T02:28:14;101271.59;;;6.06;100.00
7052;BME280;3567;52.444;13.556;2024-02-04T02:30:40;101278.31;;;6.02;100.00
7052;BME280;3567;52.444;13.556;2024-02-04T02:33:05;101273.53;;;5.97;100.00
7052;BME280;3567;52.444;13.556;2024-02-04T02:35:33;101274.53;;;5.96;100.00
7052;BME280;3567;52.444;13.556;2024-02-04T02:38:20;101281.25;;;5.92;100.00
7052;BME280;3567;52.444;13.556;2024-02-04T02:40:54;101275.13;;;5.92;100.00
7052;BME280;3567;52.444;13.556;2024-02-04T02:43:20;101266.84;;;5.87;100.00
7052;BME280;3567;52.444;13.556;2024-02-04T02:45:46;101264.34;;;5.85;100.00
7052;BME280;3567;52.444;13.556;2024-02-04T02:48:12;101271.75;;;5.90;100.00
7052;BME280;3567;52.444;13.556;2024-02-04T02:50:38;101277.91;;;5.90;100.00
7052;BME280;3567;52.444;13.556;2024-02-04T02:53:04;101280.13;;;5.87;100.00
7052;BME280;3567;52.444;13.556;2024-02-04T02:55:29;101282.13;;;5.85;100.00
7052;BME280;3567;52.444;13.556;2024-02-04T02:57:55;101293.78;;;5.84;100.00
7052;BME280;3567;52.444;13.556;2024-02-04T03:00:21;101288.84;;;5.81;100.00
7052;BME280;3567;52.444;13.556;2024-02-04T03:02:46;101288.38;;;5.77;100.00
7052;BME280;3567;52.444;13.556;2024-02-04T03:05:12;101286.53;;;5.77;100.00
7052;BME280;3567;52.444;13.556;2024-02-04T03:07:37;101282.88;;;5.78;100.00
7052;BME280;3567;52.444;13.556;2024-02-04T03:10:03;101288.84;;;5.81;100.00
7052;BME280;3567;52.444;13.556;2024-02-04T03:12:29;101275.16;;;5.84;100.00
7052;BME280;3567;52.444;13.556;2024-02-04T03:14:54;101277.47;;;5.87;100.00
7052;BME280;3567;52.444;13.556;2024-02-04T03:17:19;101285.75;;;5.92;100.00
7052;BME280;3567;52.444;13.556;2024-02-04T03:19:49;101279.03;;;5.96;100.00
7052;BME280;3567;52.444;13.556;2024-02-04T03:22:17;101277.66;;;6.00;100.00
7052;BME280;3567;52.444;13.556;2024-02-04T03:24:42;101278.94;;;6.04;100.00
7052;BME280;3567;52.444;13.556;2024-02-04T03:27:08;101278.00;;;6.12;100.00
7052;BME280;3567;52.444;13.556;2024-02-04T03:29:33;101281.13;;;6.15;100.00
7052;BME280;3567;52.444;13.556;2024-02-04T03:31:59;101271.13;;;6.17;100.00
7052;BME280;3567;52.444;13.556;2024-02-04T03:34:24;101277.72;;;6.21;100.00
7052;BME280;3567;52.444;13.556;2024-02-04T03:36:49;101268.72;;;6.22;100.00
7052;BME280;3567;52.444;13.556;2024-02-04T03:39:15;101274.31;;;6.27;100.00
7052;BME280;3567;52.444;13.556;2024-02-04T03:41:40;101263.50;;;6.29;100.00
7052;BME280;3567;52.444;13.556;2024-02-04T03:44:06;101249.81;;;6.32;100.00
7052;BME280;3567;52.444;13.556;2024-02-04T03:46:31;101253.47;;;6.31;100.00
7052;BME280;3567;52.444;13.556;2024-02-04T03:48:56;101261.53;;;6.38;100.00
7052;BME280;3567;52.444;13.556;2024-02-04T03:51:22;101254.19;;;6.40;100.00
7052;BME280;3567;52.444;13.556;2024-02-04T03:53:48;101249.88;;;6.39;100.00
7052;BME280;3567;52.444;13.556;2024-02-04T03:56:14;101251.16;;;6.43;100.00
7052;BME280;3567;52.444;13.556;2024-02-04T03:58:39;101245.47;;;6.46;100.00
7052;BME280;3567;52.444;13.556;2024-02-04T04:01:05;101246.09;;;6.48;100.00
7052;BME280;3567;52.444;13.556;2024-02-04T04:03:30;101240.97;;;6.46;100.00
7052;BME280;3567;52.444;13.556;2024-02-04T04:05:56;101243.88;;;6.51;100.00
7052;BME280;3567;52.444;13.556;2024-02-04T04:08:21;101245.53;;;6.52;100.00
7052;BME280;3567;52.444;13.556;2024-02-04T04:10:46;101245.06;;;6.49;100.00
7052;BME280;3567;52.444;13.556;2024-02-04T04:13:12;101231.38;;;6.52;100.00
7052;BME280;3567;52.444;13.556;2024-02-04T04:15:38;101232.78;;;6.48;100.00
7052;BME280;3567;52.444;13.556;2024-02-04T04:18:04;101222.34;;;6.46;100.00
7052;BME280;3567;52.444;13.556;2024-02-04T04:20:30;101227.19;;;6.43;100.00
7052;BME280;3567;52.444;13.556;2024-02-04T04:22:55;101228.22;;;6.42;100.00
7052;BME280;3567;52.444;13.556;2024-02-04T04:25:21;101217.31;;;6.37;100.00
7052;BME280;3567;52.444;13.556;2024-02-04T04:27:46;101212.56;;;6.32;100.00
7052;BME280;3567;52.444;13.556;2024-02-04T04:30:12;101209.28;;;6.30;100.00
7052;BME280;3567;52.444;13.556;2024-02-04T04:32:37;101211.28;;;6.28;100.00
7052;BME280;3567;52.444;13.556;2024-02-04T04:35:03;101203.88;;;6.23;100.00
7052;BME280;3567;52.444;13.556;2024-02-04T04:37:28;101207.94;;;6.19;100.00
7052;BME280;3567;52.444;13.556;2024-02-04T04:39:54;101213.06;;;6.21;100.00
7052;BME280;3567;52.444;13.556;2024-02-04T04:42:19;101222.69;;;6.22;100.00
7052;BME280;3567;52.444;13.556;2024-02-04T04:44:44;101221.22;;;6.19;100.00
7052;BME280;3567;52.444;13.556;2024-02-04T04:47:10;101219.75;;;6.17;100.00
7052;BME280;3567;52.444;13.556;2024-02-04T04:49:35;101214.81;;;6.14;100.00
7052;BME280;3567;52.444;13.556;2024-02-04T04:52:01;101215.00;;;6.12;100.00
7052;BME280;3567;52.444;13.556;2024-02-04T04:54:29;101217.22;;;6.09;100.00
7052;BME280;3567;52.444;13.556;2024-02-04T04:56:55;101206.94;;;6.06;100.00
7052;BME280;3567;52.444;13.556;2024-02-04T04:59:20;101197.69;;;6.01;100.00
7052;BME280;3567;52.444;13.556;2024-02-04T05:01:46;101195.63;;;5.97;100.00
7052;BME280;3567;52.444;13.556;2024-02-04T05:04:12;101192.56;;;6.00;100.00
7052;BME280;3567;52.444;13.556;2024-02-04T05:06:37;101189.28;;;5.98;100.00
7052;BME280;3567;52.444;13.556;2024-02-04T05:09:03;101184.50;;;5.93;100.00
7052;BME280;3567;52.444;13.556;2024-02-04T05:11:28;101177.69;;;5.91;100.00
7052;BME280;3567;52.444;13.556;2024-02-04T05:13:53;101174.75;;;5.86;100.00
7052;BME280;3567;52.444;13.556;2024-02-04T05:16:19;101174.53;;;5.81;100.00
7052;BME280;3567;52.444;13.556;2024-02-04T05:18:45;101184.03;;;5.75;100.00
7052;BME280;3567;52.444;13.556;2024-02-04T05:21:10;101176.81;;;5.69;100.00
7052;BME280;3567;52.444;13.556;2024-02-04T05:23:36;101173.72;;;5.65;100.00
7052;BME280;3567;52.444;13.556;2024-02-04T05:26:05;101180.41;;;5.61;100.00
7052;BME280;3567;52.444;13.556;2024-02-04T05:28:31;101190.38;;;5.59;100.00
7052;BME280;3567;52.444;13.556;2024-02-04T05:30:57;101180.13;;;5.56;100.00
7052;BME280;3567;52.444;13.556;2024-02-04T05:33:22;101175.84;;;5.55;100.00
7052;BME280;3567;52.444;13.556;2024-02-04T05:35:48;101173.53;;;5.52;100.00
7052;BME280;3567;52.444;13.556;2024-02-04T05:38:13;101171.44;;;5.47;100.00
7052;BME280;3567;52.444;13.556;2024-02-04T05:40:39;101168.16;;;5.45;100.00
7052;BME280;3567;52.444;13.556;2024-02-04T05:43:04;101153.38;;;5.43;100.00
7052;BME280;3567;52.444;13.556;2024-02-04T05:45:36;101148.06;;;5.43;100.00
7052;BME280;3567;52.444;13.556;2024-02-04T05:48:02;101153.38;;;5.43;100.00
7052;BME280;3567;52.444;13.556;2024-02-04T05:50:27;101151.75;;;5.42;100.00
7052;BME280;3567;52.444;13.556;2024-02-04T05:52:53;101158.69;;;5.43;100.00
7052;BME280;3567;52.444;13.556;2024-02-04T05:55:18;101163.66;;;5.46;100.00
7052;BME280;3567;52.444;13.556;2024-02-04T05:57:44;101163.28;;;5.49;100.00
7052;BME280;3567;52.444;13.556;2024-02-04T06:00:10;101154.75;;;5.53;100.00
7052;BME280;3567;52.444;13.556;2024-02-04T06:02:36;101154.38;;;5.57;100.00
7052;BME280;3567;52.444;13.556;2024-02-04T06:05:02;101163.81;;;5.59;100.00
7052;BME280;3567;52.444;13.556;2024-02-04T06:07:27;101163.44;;;5.62;100.00
7052;BME280;3567;52.444;13.556;2024-02-04T06:09:54;101158.13;;;5.62;100.00
7052;BME280;3567;52.444;13.556;2024-02-04T06:12:21;101160.78;;;5.62;100.00
7052;BME280;3567;52.444;13.556;2024-02-04T06:14:46;101160.78;;;5.62;100.00
7052;BME280;3567;52.444;13.556;2024-02-04T06:17:12;101167.13;;;5.61;100.00
7052;BME280;3567;52.444;13.556;2024-02-04T06:19:37;101161.81;;;5.61;100.00
7052;BME280;3567;52.444;13.556;2024-02-04T06:22:03;101165.91;;;5.64;100.00
7052;BME280;3567;52.444;13.556;2024-02-04T06:24:28;101156.09;;;5.64;100.00
7052;BME280;3567;52.444;13.556;2024-02-04T06:26:54;101155.38;;;5.70;100.00
7052;BME280;3567;52.444;13.556;2024-02-04T06:29:19;101157.91;;;5.78;100.00
7052;BME280;3567;52.444;13.556;2024-02-04T06:31:45;101155.53;;;5.84;100.00
7052;BME280;3567;52.444;13.556;2024-02-04T06:34:11;101165.81;;;5.87;100.00
7052;BME280;3567;52.444;13.556;2024-02-04T06:36:36;101168.75;;;5.92;100.00
7052;BME280;3567;52.444;13.556;2024-02-04T06:39:01;101167.59;;;6.01;100.00
7052;BME280;3567;52.444;13.556;2024-02-04T06:41:27;101148.44;;;6.06;100.00
7052;BME280;3567;52.444;13.556;2024-02-04T06:43:52;101144.59;;;6.08;100.00
7052;BME280;3567;52.444;13.556;2024-02-04T06:46:27;101148.50;;;6.12;100.00
7052;BME280;3567;52.444;13.556;2024-02-04T06:48:53;101152.00;;;6.13;100.00
7052;BME280;3567;52.444;13.556;2024-02-04T06:51:19;101153.66;;;6.14;100.00
7052;BME280;3567;52.444;13.556;2024-02-04T06:53:44;101150.44;;;6.18;100.00
7052;BME280;3567;52.444;13.556;2024-02-04T06:56:10;101161.50;;;6.22;100.00
7052;BME280;3567;52.444;13.556;2024-02-04T06:58:39;101163.13;;;6.23;100.00
7052;BME280;3567;52.444;13.556;2024-02-04T07:01:05;101164.59;;;6.25;100.00
7052;BME280;3567;52.444;13.556;2024-02-04T07:03:31;101155.59;;;6.26;100.00
7052;BME280;3567;52.444;13.556;2024-02-04T07:05:58;101164.66;;;6.32;100.00
7052;BME280;3567;52.444;13.556;2024-02-04T07:08:23;101161.63;;;6.35;100.00
7052;BME280;3567;52.444;13.556;2024-02-04T07:10:49;101163.06;;;6.38;100.00
7052;BME280;3567;52.444;13.556;2024-02-04T07:13:14;101156.94;;;6.37;100.00
7052;BME280;3567;52.444;13.556;2024-02-04T07:15:40;101164.34;;;6.42;100.00
7052;BME280;3567;52.444;13.556;2024-02-04T07:18:05;101172.13;;;6.43;100.00
7052;BME280;3567;52.444;13.556;2024-02-04T07:20:30;101168.09;;;6.47;100.00
7052;BME280;3567;52.444;13.556;2024-02-04T07:22:56;101160.72;;;6.49;100.00
7052;BME280;3567;52.444;13.556;2024-02-04T07:25:21;101152.56;;;6.51;100.00
7052;BME280;3567;52.444;13.556;2024-02-04T07:27:48;101149.50;;;6.54;100.00
7052;BME280;3567;52.444;13.556;2024-02-04T07:30:13;101143.81;;;6.57;100.00
7052;BME280;3567;52.444;13.556;2024-02-04T07:32:38;101136.66;;;6.57;100.00
7052;BME280;3567;52.444;13.556;2024-02-04T07:35:04;101145.91;;;6.62;100.00
7052;BME280;3567;52.444;13.556;2024-02-04T07:37:29;101152.66;;;6.64;100.00
7052;BME280;3567;52.444;13.556;2024-02-04T07:39:55;101146.53;;;6.64;100.00
7052;BME280;3567;52.444;13.556;2024-02-04T07:42:20;101143.50;;;6.67;100.00
7052;BME280;3567;52.444;13.556;2024-02-04T07:44:45;101143.28;;;6.68;100.00
7052;BME280;3567;52.444;13.556;2024-02-04T07:47:11;101137.59;;;6.71;100.00
7052;BME280;3567;52.444;13.556;2024-02-04T07:49:36;101124.69;;;6.75;100.00
7052;BME280;3567;52.444;13.556;2024-02-04T07:52:02;101125.50;;;6.75;100.00
7052;BME280;3567;52.444;13.556;2024-02-04T07:54:28;101110.19;;;6.77;100.00
7052;BME280;3567;52.444;13.556;2024-02-04T07:56:54;101117.16;;;6.78;100.00
7052;BME280;3567;52.444;13.556;2024-02-04T07:59:19;101100.97;;;6.80;100.00
7052;BME280;3567;52.444;13.556;2024-02-04T08:01:44;101095.44;;;6.81;100.00
7052;BME280;3567;52.444;13.556;2024-02-04T08:04:10;101101.84;;;6.87;100.00
7052;BME280;3567;52.444;13.556;2024-02-04T08:06:36;101111.28;;;6.90;100.00
7052;BME280;3567;52.444;13.556;2024-02-04T08:09:03;101109.06;;;6.93;100.00
7052;BME280;3567;52.444;13.556;2024-02-04T08:11:29;101113.97;;;6.96;100.00
7052;BME280;3567;52.444;13.556;2024-02-04T08:13:54;101115.25;;;7.00;100.00
7052;BME280;3567;52.444;13.556;2024-02-04T08:16:20;101117.31;;;7.05;100.00
7052;BME280;3567;52.444;13.556;2024-02-04T08:18:46;101101.56;;;7.10;100.00
7052;BME280;3567;52.444;13.556;2024-02-04T08:21:11;101110.41;;;7.17;100.00
7052;BME280;3567;52.444;13.556;2024-02-04T08:23:37;101098.97;;;7.23;100.00
7052;BME280;3567;52.444;13.556;2024-02-04T08:26:02;101101.47;;;7.31;100.00
7052;BME280;3567;52.444;13.556;2024-02-04T08:28:28;101110.09;;;7.33;100.00
7052;BME280;3567;52.444;13.556;2024-02-04T08:30:54;101095.56;;;7.36;100.00
7052;BME280;3567;52.444;13.556;2024-02-04T08:33:20;101109.28;;;7.40;100.00
7052;BME280;3567;52.444;13.556;2024-02-04T08:35:45;101094.75;;;7.35;100.00
7052;BME280;3567;52.444;13.556;2024-02-04T08:38:10;101097.63;;;7.41;100.00
7052;BME280;3567;52.444;13.556;2024-02-04T08:40:36;101096.59;;;7.42;100.00
7052;BME280;3567;52.444;13.556;2024-02-04T08:43:01;101099.88;;;7.44;100.00
7052;BME280;3567;52.444;13.556;2024-02-04T08:45:27;101103.19;;;7.46;100.00
7052;BME280;3567;52.444;13.556;2024-02-04T08:47:52;101087.81;;;7.48;100.00
7052;BME280;3567;52.444;13.556;2024-02-04T08:50:18;101089.25;;;7.50;100.00
7052;BME280;3567;52.444;13.556;2024-02-04T08:52:43;101081.88;;;7.52;100.00
7052;BME280;3567;52.444;13.556;2024-02-04T08:55:09;101086.41;;;7.52;100.00
7052;BME280;3567;52.444;13.556;2024-02-04T08:57:34;101080.25;;;7.51;100.00
7052;BME280;3567;52.444;13.556;2024-02-04T08:59:59;101086.19;;;7.53;100.00
7052;BME280;3567;52.444;13.556;2024-02-04T09:02:25;101081.88;;;7.52;100.00
7052;BME280;3567;52.444;13.556;2024-02-04T09:04:51;101077.97;;;7.55;100.00
7052;BME280;3567;52.444;13.556;2024-02-04T09:07:16;101067.97;;;7.57;100.00
7052;BME280;3567;52.444;13.556;2024-02-04T09:09:41;101070.22;;;7.60;100.00
7052;BME280;3567;52.444;13.556;2024-02-04T09:12:09;101068.78;;;7.64;100.00
7052;BME280;3567;52.444;13.556;2024-02-04T09:14:34;101074.94;;;7.71;100.00
7052;BME280;3567;52.444;13.556;2024-02-04T09:17:05;101071.06;;;7.67;100.00
7052;BME280;3567;52.444;13.556;2024-02-04T09:19:31;101075.78;;;7.72;100.00
7052;BME280;3567;52.444;13.556;2024-02-04T09:21:57;101074.78;;;7.73;100.00
7052;BME280;3567;52.444;13.556;2024-02-04T09:24:22;101064.72;;;7.75;100.00
7052;BME280;3567;52.444;13.556;2024-02-04T09:26:48;101063.09;;;7.80;100.00
7052;BME280;3567;52.444;13.556;2024-02-04T09:29:14;101058.19;;;7.84;100.00
7052;BME280;3567;52.444;13.556;2024-02-04T09:31:39;101061.88;;;7.83;99.98
7052;BME280;3567;52.444;13.556;2024-02-04T09:34:05;101071.91;;;7.87;100.00
7052;BME280;3567;52.444;13.556;2024-02-04T09:36:30;101064.94;;;7.93;100.00
7052;BME280;3567;52.444;13.556;2024-02-04T09:38:55;101077.50;;;8.06;100.00
7052;BME280;3567;52.444;13.556;2024-02-04T09:41:21;101064.16;;;8.06;98.55
7052;BME280;3567;52.444;13.556;2024-02-04T09:43:50;101070.09;;;8.14;99.53
7052;BME280;3567;52.444;13.556;2024-02-04T09:46:17;101059.84;;;8.18;98.50
7052;BME280;3567;52.444;13.556;2024-02-04T09:48:44;101056.16;;;8.26;97.30
7052;BME280;3567;52.444;13.556;2024-02-04T09:51:10;101059.44;;;8.34;97.75
7052;BME280;3567;52.444;13.556;2024-02-04T09:53:36;101066.41;;;8.35;95.43
7052;BME280;3567;52.444;13.556;2024-02-04T09:56:05;101058.25;;;8.44;96.10
7052;BME280;3567;52.444;13.556;2024-02-04T09:58:32;101052.06;;;8.50;94.58
7052;BME280;3567;52.444;13.556;2024-02-04T10:00:59;101036.47;;;8.53;94.88
7052;BME280;3567;52.444;13.556;2024-02-04T10:03:25;101038.09;;;8.54;93.80
7052;BME280;3567;52.444;13.556;2024-02-04T10:05:51;101029.06;;;8.55;93.40
7052;BME280;3567;52.444;13.556;2024-02-04T10:08:16;101033.59;;;8.48;92.15
7052;BME280;3567;52.444;13.556;2024-02-04T10:10:42;101047.97;;;8.54;93.30
7052;BME280;3567;52.444;13.556;2024-02-04T10:13:10;101038.09;;;8.61;93.38
7052;BME280;3567;52.444;13.556;2024-02-04T10:15:36;101033.97;;;8.65;93.03
7052;BME280;3567;52.444;13.556;2024-02-04T10:18:05;101037.88;;;8.62;92.13
7052;BME280;3567;52.444;13.556;2024-02-04T10:20:31;101034.38;;;8.62;91.15
7052;BME280;3567;52.444;13.556;2024-02-04T10:22:57;101035.22;;;8.69;91.23
7052;BME280;3567;52.444;13.556;2024-02-04T10:25:23;101029.63;;;8.77;90.89
7052;BME280;3567;52.444;13.556;2024-02-04T10:27:49;101016.63;;;8.94;90.81
7052;BME280;3567;52.444;13.556;2024-02-04T10:30:14;101027.09;;;9.02;89.96
7052;BME280;3567;52.444;13.556;2024-02-04T10:32:41;101016.19;;;9.04;87.81
7052;BME280;3567;52.444;13.556;2024-02-04T10:35:07;101012.91;;;9.02;86.91
7052;BME280;3567;52.444;13.556;2024-02-04T10:37:34;101015.81;;;8.93;87.63
7052;BME280;3567;52.444;13.556;2024-02-04T10:39:59;101010.47;;;8.93;87.10
7052;BME280;3567;52.444;13.556;2024-02-04T10:42:25;101008.41;;;8.89;87.04
7052;BME280;3567;52.444;13.556;2024-02-04T10:44:55;101011.09;;;8.89;87.61
7052;BME280;3567;52.444;13.556;2024-02-04T10:47:26;101000.59;;;8.94;87.86
7052;BME280;3567;52.444;13.556;2024-02-04T10:49:56;101001.22;;;8.96;87.41
7052;BME280;3567;52.444;13.556;2024-02-04T10:52:28;101003.91;;;8.96;87.34
7052;BME280;3567;52.444;13.556;2024-02-04T10:54:57;101001.88;;;8.85;86.04
7052;BME280;3567;52.444;13.556;2024-02-04T10:57:22;101000.03;;;8.79;87.37
7052;BME280;3567;52.444;13.556;2024-02-04T10:59:48;101006.44;;;8.71;87.97
7052;BME280;3567;52.444;13.556;2024-02-04T11:02:15;100995.34;;;8.68;87.58
7052;BME280;3567;52.444;13.556;2024-02-04T11:04:42;100987.31;;;8.68;88.32
7052;BME280;3567;52.444;13.556;2024-02-04T11:07:09;100989.19;;;8.67;87.21
7052;BME280;3567;52.444;13.556;2024-02-04T11:09:36;100980.31;;;8.73;88.66
7052;BME280;3567;52.444;13.556;2024-02-04T11:12:05;100982.81;;;8.75;88.75
7052;BME280;3567;52.444;13.556;2024-02-04T11:14:33;100968.63;;;8.74;87.45
7052;BME280;3567;52.444;13.556;2024-02-04T11:17:20;100973.16;;;8.74;87.38
7052;BME280;3567;52.444;13.556;2024-02-04T11:20:16;100968.19;;;8.77;87.82
7052;BME280;3567;52.444;13.556;2024-02-04T11:25:51;100973.16;;;8.74;87.37
7052;BME280;3567;52.444;13.556;2024-02-04T11:28:19;100971.91;;;8.76;86.54
7052;BME280;3567;52.444;13.556;2024-02-04T11:30:47;100972.31;;;8.80;87.05
7052;BME280;3567;52.444;13.556;2024-02-04T11:33:13;100963.03;;;8.82;86.68
7052;BME280;3567;52.444;13.556;2024-02-04T11:35:42;100963.84;;;8.83;86.76
7052;BME280;3567;52.444;13.556;2024-02-04T11:38:08;100962.00;;;8.83;86.41
7052;BME280;3567;52.444;13.556;2024-02-04T11:40:35;100949.09;;;8.80;86.26
7052;BME280;3567;52.444;13.556;2024-02-04T11:43:10;100952.16;;;8.77;86.08
7052;BME280;3567;52.444;13.556;2024-02-04T11:45:40;100937.78;;;8.78;85.78
7052;BME280;3567;52.444;13.556;2024-02-04T11:48:10;100941.09;;;8.74;85.70
7052;BME280;3567;52.444;13.556;2024-02-04T11:50:36;100917.69;;;8.69;85.59
7052;BME280;3567;52.444;13.556;2024-02-04T11:53:10;100922.59;;;8.72;86.52
7052;BME280;3567;52.444;13.556;2024-02-04T11:55:38;100913.78;;;8.72;85.99
7052;BME280;3567;52.444;13.556;2024-02-04T11:58:05;100910.47;;;8.76;86.26
7052;BME280;3567;52.444;13.556;2024-02-04T12:00:34;100892.13;;;8.86;86.19
7052;BME280;3567;52.444;13.556;2024-02-04T12:03:05;100891.31;;;8.86;83.74
7052;BME280;3567;52.444;13.556;2024-02-04T12:05:35;100900.75;;;8.95;84.77
7052;BME280;3567;52.444;13.556;2024-02-04T12:08:05;100905.22;;;9.01;84.74
7052;BME280;3567;52.444;13.556;2024-02-04T12:10:31;100907.06;;;9.01;84.42
7052;BME280;3567;52.444;13.556;2024-02-04T12:12:59;100911.38;;;9.02;84.92
7052;BME280;3567;52.444;13.556;2024-02-04T12:15:25;100908.53;;;8.97;84.03
7052;BME280;3567;52.444;13.556;2024-02-04T12:17:50;100911.25;;;8.90;83.85
7052;BME280;3567;52.444;13.556;2024-02-04T12:20:16;100912.25;;;8.89;83.41
7052;BME280;3567;52.444;13.556;2024-02-04T12:22:42;100916.78;;;8.88;84.07
7052;BME280;3567;52.444;13.556;2024-02-04T12:25:08;100911.25;;;8.90;84.17
7052;BME280;3567;52.444;13.556;2024-02-04T12:27:34;100910.44;;;8.89;83.78
7052;BME280;3567;52.444;13.556;2024-02-04T12:29:59;100912.25;;;8.89;84.55
7052;BME280;3567;52.444;13.556;2024-02-04T12:32:25;100913.09;;;8.83;83.89
7052;BME280;3567;52.444;13.556;2024-02-04T12:34:51;100907.63;;;8.71;83.69
7052;BME280;3567;52.444;13.556;2024-02-04T12:37:19;100909.69;;;8.62;83.51
7052;BME280;3567;52.444;13.556;2024-02-04T12:39:45;100905.81;;;8.58;84.46
7052;BME280;3567;52.444;13.556;2024-02-04T12:42:10;100909.97;;;8.48;83.67
7052;BME280;3567;52.444;13.556;2024-02-04T12:44:36;100913.66;;;8.47;84.67
7052;BME280;3567;52.444;13.556;2024-02-04T12:47:01;100910.38;;;8.45;84.36
7052;BME280;3567;52.444;13.556;2024-02-04T12:49:27;100909.34;;;8.46;85.04
7052;BME280;3567;52.444;13.556;2024-02-04T12:52:04;100906.91;;;8.44;84.93
7052;BME280;3567;52.444;13.556;2024-02-04T12:54:29;100900.28;;;8.47;85.17
7052;BME280;3567;52.444;13.556;2024-02-04T12:56:54;100890.28;;;8.42;84.39
7052;BME280;3567;52.444;13.556;2024-02-04T12:59:28;100893.56;;;8.37;83.36
7052;BME280;3567;52.444;13.556;2024-02-04T13:02:00;100905.88;;;8.38;84.21
7052;BME280;3567;52.444;13.556;2024-02-04T13:04:26;100900.53;;;8.38;84.07